Terminal Aerodrome Forecast
Issued by NWS Jackson, KY

Home | Current Version | Previous Version | Text Only | Print | Product List | Glossary On
Versions: 1 2 3 4 5 6 7 8 9 10 11 12 13 14 15 16 17 18 19 20 21
287
FTUS43 KJKL 281738
TAFJKL
TAF
KJKL 281738Z 2818/2918 22005KT P6SM VCSH SCT040
     FM282300 VRB03KT P6SM SCT200
     FM291000 00000KT 4SM BR VCSH BKN020
     FM291300 00000KT 5SM BR VCSH SCT030 BKN070
     FM291500 00000KT P6SM VCSH SCT050 BKN100=

USA.gov is the U.S. government's official web portal to all federal, state and local government web resources and services.